Карточка аэропорта URWA

Внимание!
Информация на этой странице в стадии наполнения.
Если вы не увидели какой-то информации, или заметили неточность - пожалуйста сообщите нам!
Спасибо!
Команда RU-STAFF
Название аэропортаАстрахань
Название аэропорта (англ.)Astrakhan
Превышение-65 ft. (-19.8 m.)
Координаты46°16.998', 48°0.38399999999996'
Высота перехода3000 ft
Эшелон переходаFL50
Коды ответчика1010-1017
Зона ОрВДРостов-на-Дону РПИ (URRV)
Данные METARURWA 141300Z 01006MPS 330V050 CAVOK 33/13 Q1007 R27/010070 NOSIG RMK QFE757/1009
Проноз погоды (TAF)URWA 141057Z 1412/1421 36006G12MPS CAVOK TEMPO 1412/1418 33007G13MPS
NOTAMshow/hide NOTAM
AWOS   TABLE

Информация о ВПП

ВПП Длина ВПП (м.) Покрытие Курс ВПП Частота ILS
111950Трава113 
291950Трава293 
093200Асфальтобетон89110.3
273200Асфальтобетон269110.5

Диспетчерские позиции

Позывной Наименование органа УВД Частота
URWA_TWRАстрахань-Вышка118.6
URWA_R_APPАстрахань-Круг120.6
URWA_APPАстрахань-Подход126.0



Спутниковое изображение